PWSweather.com
Personal Weather Stations
Station Observations
DW6359
Southwest Cambria, Cambria, WI 53923

Southwest CambriaCambria, WI 53923

Lat: 43.541194, Lon: -89.11275

Elevation: 945

Station Type: Davis Vantage Pro2

http://home.centurytel.net/weathercambria/wxcambria.html

High Low Average
Temperature 12.1°F-11.1°C -2.4°F-19.1°C 8.1°F-13.3°C
Dew Point 8.4°F-13.1°C -7.8°F-22.1°C 2.1°F-16.6°C
Winds 16.0 mph 25.7 kmh Calm Calm 6.0 mph WNW9.7 kmh WNW
Wind Gusts 20.0 mph32.2 kmh -- 2.0 mph3.2 kmh
Humidity 86% 66% 76%
Pressure 30.40 in1029.5 mb 30.11 in1019.6 mb -
Precipitation 0.00 in0.0 mm - -
Hour Temp Dew Point Humidity Winds Wind Gusts Pressure Precip Precip Rate Daily Precip Total
12:00 AM 6.9°F-13.9°C 2.3°F-16.5°C 81% 4.0 mph SW6.4 kmh SW 7.0 mph11.3 kmh 30.16 in1021.3 mb 0.00 in0.0 mm 0.00 in0.0 mm 0.00 in0.0 mm
12:05 AM 7.0°F-13.9°C 2.4°F-16.4°C 81% 6.0 mph SW9.7 kmh SW 7.0 mph11.3 kmh 30.15 in1021.0 mb 0.00 in0.0 mm 0.00 in0.0 mm 0.00 in0.0 mm
12:10 AM 7.2°F-13.8°C 2.4°F-16.4°C 80% 4.0 mph SW6.4 kmh SW -- 30.15 in1021.0 mb 0.00 in0.0 mm 0.00 in0.0 mm 0.00 in0.0 mm
12:15 AM 7.4°F-13.7°C 2.5°F-16.4°C 80% 3.0 mph SW4.8 kmh SW -- 30.15 in1021.0 mb 0.00 in0.0 mm 0.00 in0.0 mm 0.00 in0.0 mm
12:20 AM 7.5°F-13.6°C 2.6°F-16.3°C 80% 3.0 mph WSW4.8 kmh WSW -- 30.15 in1021.0 mb 0.00 in0.0 mm 0.00 in0.0 mm 0.00 in0.0 mm
12:25 AM 7.6°F-13.6°C 2.7°F-16.3°C 80% 4.0 mph SW6.4 kmh SW -- 30.15 in1021.0 mb 0.00 in0.0 mm 0.00 in0.0 mm 0.00 in0.0 mm
12:30 AM 7.7°F-13.5°C 2.8°F-16.2°C 80% 3.0 mph SW4.8 kmh SW -- 30.15 in1021.0 mb 0.00 in0.0 mm 0.00 in0.0 mm 0.00 in0.0 mm
12:35 AM 7.8°F-13.4°C 2.9°F-16.2°C 80% 5.0 mph SW8.0 kmh SW -- 30.15 in1021.0 mb 0.00 in0.0 mm 0.00 in0.0 mm 0.00 in0.0 mm
12:40 AM 7.9°F-13.4°C 3.0°F-16.1°C 80% 4.0 mph SW6.4 kmh SW -- 30.14 in1020.7 mb 0.00 in0.0 mm 0.00 in0.0 mm 0.00 in0.0 mm
12:45 AM 8.0°F-13.3°C 3.1°F-16.1°C 80% 4.0 mph SW6.4 kmh SW -- 30.14 in1020.7 mb 0.00 in0.0 mm 0.00 in0.0 mm 0.00 in0.0 mm
12:50 AM 8.1°F-13.3°C 3.2°F-16.0°C 80% 2.0 mph SW3.2 kmh SW 7.0 mph11.3 kmh 30.14 in1020.7 mb 0.00 in0.0 mm 0.00 in0.0 mm 0.00 in0.0 mm
12:55 AM 8.2°F-13.2°C 3.3°F-15.9°C 80% 3.0 mph SW4.8 kmh SW 7.0 mph11.3 kmh 30.14 in1020.7 mb 0.00 in0.0 mm 0.00 in0.0 mm 0.00 in0.0 mm
01:00 AM 8.3°F-13.2°C 3.4°F-15.9°C 80% 3.0 mph SW4.8 kmh SW -- 30.14 in1020.7 mb 0.00 in0.0 mm 0.00 in0.0 mm 0.00 in0.0 mm
01:05 AM 8.5°F-13.1°C 3.6°F-15.8°C 80% 3.0 mph SW4.8 kmh SW -- 30.14 in1020.7 mb 0.00 in0.0 mm 0.00 in0.0 mm 0.00 in0.0 mm
01:10 AM 8.5°F-13.1°C 3.6°F-15.8°C 80% 2.0 mph SW3.2 kmh SW -- 30.14 in1020.7 mb 0.00 in0.0 mm 0.00 in0.0 mm 0.00 in0.0 mm
01:15 AM 8.5°F-13.1°C 3.9°F-15.6°C 81% 5.0 mph SW8.0 kmh SW -- 30.14 in1020.7 mb 0.00 in0.0 mm 0.00 in0.0 mm 0.00 in0.0 mm
01:20 AM 8.5°F-13.1°C 3.9°F-15.6°C 81% 4.0 mph SW6.4 kmh SW -- 30.14 in1020.7 mb 0.00 in0.0 mm 0.00 in0.0 mm 0.00 in0.0 mm
01:25 AM 8.6°F-13.0°C 4.3°F-15.4°C 82% 3.0 mph SW4.8 kmh SW -- 30.13 in1020.3 mb 0.00 in0.0 mm 0.00 in0.0 mm 0.00 in0.0 mm
01:30 AM 8.7°F-12.9°C 4.4°F-15.3°C 82% 4.0 mph SW6.4 kmh SW -- 30.13 in1020.3 mb 0.00 in0.0 mm 0.00 in0.0 mm 0.00 in0.0 mm
01:35 AM 8.7°F-12.9°C 4.4°F-15.3°C 82% 4.0 mph SW6.4 kmh SW -- 30.13 in1020.3 mb 0.00 in0.0 mm 0.00 in0.0 mm 0.00 in0.0 mm
01:40 AM 8.7°F-12.9°C 4.4°F-15.3°C 82% 5.0 mph SW8.0 kmh SW 6.0 mph9.7 kmh 30.13 in1020.3 mb 0.00 in0.0 mm 0.00 in0.0 mm 0.00 in0.0 mm
01:45 AM 8.7°F-12.9°C 4.6°F-15.2°C 83% 4.0 mph SW6.4 kmh SW 6.0 mph9.7 kmh 30.12 in1020.0 mb 0.00 in0.0 mm 0.00 in0.0 mm 0.00 in0.0 mm
01:50 AM 8.8°F-12.9°C 4.7°F-15.2°C 83% 3.0 mph SW4.8 kmh SW -- 30.12 in1020.0 mb 0.00 in0.0 mm 0.00 in0.0 mm 0.00 in0.0 mm
01:55 AM 8.8°F-12.9°C 4.7°F-15.2°C 83% 3.0 mph SW4.8 kmh SW -- 30.12 in1020.0 mb 0.00 in0.0 mm 0.00 in0.0 mm 0.00 in0.0 mm
02:00 AM 8.9°F-12.8°C 5.1°F-14.9°C 84% 3.0 mph SW4.8 kmh SW -- 30.12 in1020.0 mb 0.00 in0.0 mm 0.00 in0.0 mm 0.00 in0.0 mm
02:05 AM 9.0°F-12.8°C 5.2°F-14.9°C 84% 3.0 mph SW4.8 kmh SW -- 30.12 in1020.0 mb 0.00 in0.0 mm 0.00 in0.0 mm 0.00 in0.0 mm
02:10 AM 9.0°F-12.8°C 5.2°F-14.9°C 84% 5.0 mph SW8.0 kmh SW -- 30.12 in1020.0 mb 0.00 in0.0 mm 0.00 in0.0 mm 0.00 in0.0 mm
02:15 AM 9.1°F-12.7°C 5.3°F-14.8°C 84% 1.0 mph SW1.6 kmh SW -- 30.12 in1020.0 mb 0.00 in0.0 mm 0.00 in0.0 mm 0.00 in0.0 mm
02:20 AM 9.1°F-12.7°C 5.3°F-14.8°C 84% 3.0 mph SW4.8 kmh SW -- 30.12 in1020.0 mb 0.00 in0.0 mm 0.00 in0.0 mm 0.00 in0.0 mm
02:25 AM 9.2°F-12.7°C 5.4°F-14.8°C 84% 3.0 mph SW4.8 kmh SW -- 30.12 in1020.0 mb 0.00 in0.0 mm 0.00 in0.0 mm 0.00 in0.0 mm
02:30 AM 9.3°F-12.6°C 5.5°F-14.7°C 84% 4.0 mph SW6.4 kmh SW 5.0 mph8.0 kmh 30.12 in1020.0 mb 0.00 in0.0 mm 0.00 in0.0 mm 0.00 in0.0 mm
02:35 AM 9.4°F-12.6°C 5.6°F-14.7°C 84% 4.0 mph SW6.4 kmh SW 5.0 mph8.0 kmh 30.12 in1020.0 mb 0.00 in0.0 mm 0.00 in0.0 mm 0.00 in0.0 mm
02:40 AM 9.5°F-12.5°C 5.7°F-14.6°C 84% 1.0 mph SW1.6 kmh SW -- 30.11 in1019.6 mb 0.00 in0.0 mm 0.00 in0.0 mm 0.00 in0.0 mm
02:45 AM 9.5°F-12.5°C 5.7°F-14.6°C 84% 4.0 mph SW6.4 kmh SW -- 30.12 in1020.0 mb 0.00 in0.0 mm 0.00 in0.0 mm 0.00 in0.0 mm
02:50 AM 9.6°F-12.4°C 5.8°F-14.6°C 84% 2.0 mph SW3.2 kmh SW -- 30.12 in1020.0 mb 0.00 in0.0 mm 0.00 in0.0 mm 0.00 in0.0 mm
02:55 AM 9.7°F-12.4°C 5.9°F-14.5°C 84% 2.0 mph WSW3.2 kmh WSW -- 30.12 in1020.0 mb 0.00 in0.0 mm 0.00 in0.0 mm 0.00 in0.0 mm
03:00 AM 9.8°F-12.3°C 6.0°F-14.4°C 84% 2.0 mph WSW3.2 kmh WSW -- 30.12 in1020.0 mb 0.00 in0.0 mm 0.00 in0.0 mm 0.00 in0.0 mm
03:05 AM 9.8°F-12.3°C 6.0°F-14.4°C 84% 3.0 mph WSW4.8 kmh WSW -- 30.12 in1020.0 mb 0.00 in0.0 mm 0.00 in0.0 mm 0.00 in0.0 mm
03:10 AM 9.9°F-12.3°C 6.1°F-14.4°C 84% 2.0 mph WSW3.2 kmh WSW -- 30.12 in1020.0 mb 0.00 in0.0 mm 0.00 in0.0 mm 0.00 in0.0 mm
03:15 AM 10.0°F-12.2°C 6.1°F-14.4°C 84% 3.0 mph SSW4.8 kmh SSW -- 30.12 in1020.0 mb 0.00 in0.0 mm 0.00 in0.0 mm 0.00 in0.0 mm
03:20 AM 10.0°F-12.2°C 6.1°F-14.4°C 84% 4.0 mph SW6.4 kmh SW 7.0 mph11.3 kmh 30.12 in1020.0 mb 0.00 in0.0 mm 0.00 in0.0 mm 0.00 in0.0 mm
03:25 AM 10.1°F-12.2°C 6.2°F-14.3°C 84% Calm Calm 7.0 mph11.3 kmh 30.12 in1020.0 mb 0.00 in0.0 mm 0.00 in0.0 mm 0.00 in0.0 mm
03:30 AM 10.1°F-12.2°C 6.2°F-14.3°C 84% 3.0 mph WSW4.8 kmh WSW -- 30.12 in1020.0 mb 0.00 in0.0 mm 0.00 in0.0 mm 0.00 in0.0 mm
03:35 AM 10.2°F-12.1°C 6.3°F-14.3°C 84% 2.0 mph WSW3.2 kmh WSW -- 30.12 in1020.0 mb 0.00 in0.0 mm 0.00 in0.0 mm 0.00 in0.0 mm
03:40 AM 10.3°F-12.1°C 6.4°F-14.2°C 84% 3.0 mph WSW4.8 kmh WSW -- 30.13 in1020.3 mb 0.00 in0.0 mm 0.00 in0.0 mm 0.00 in0.0 mm
03:45 AM 10.4°F-12.0°C 6.5°F-14.2°C 84% 7.0 mph WSW11.3 kmh WSW -- 30.12 in1020.0 mb 0.00 in0.0 mm 0.00 in0.0 mm 0.00 in0.0 mm
03:50 AM 10.4°F-12.0°C 6.5°F-14.2°C 84% 3.0 mph SW4.8 kmh SW -- 30.13 in1020.3 mb 0.00 in0.0 mm 0.00 in0.0 mm 0.00 in0.0 mm
03:55 AM 10.4°F-12.0°C 6.5°F-14.2°C 84% 3.0 mph WSW4.8 kmh WSW -- 30.12 in1020.0 mb 0.00 in0.0 mm 0.00 in0.0 mm 0.00 in0.0 mm
04:00 AM 10.5°F-11.9°C 6.6°F-14.1°C 84% 2.0 mph WSW3.2 kmh WSW -- 30.13 in1020.3 mb 0.00 in0.0 mm 0.00 in0.0 mm 0.00 in0.0 mm
04:05 AM 10.5°F-11.9°C 6.6°F-14.1°C 84% 5.0 mph WSW8.0 kmh WSW -- 30.12 in1020.0 mb 0.00 in0.0 mm 0.00 in0.0 mm 0.00 in0.0 mm
04:10 AM 10.5°F-11.9°C 6.6°F-14.1°C 84% 1.0 mph WSW1.6 kmh WSW 7.0 mph11.3 kmh 30.13 in1020.3 mb 0.00 in0.0 mm 0.00 in0.0 mm 0.00 in0.0 mm
04:15 AM 10.5°F-11.9°C 6.6°F-14.1°C 84% 2.0 mph WSW3.2 kmh WSW 7.0 mph11.3 kmh 30.13 in1020.3 mb 0.00 in0.0 mm 0.00 in0.0 mm 0.00 in0.0 mm
04:20 AM 10.4°F-12.0°C 6.5°F-14.2°C 84% 3.0 mph WSW4.8 kmh WSW -- 30.13 in1020.3 mb 0.00 in0.0 mm 0.00 in0.0 mm 0.00 in0.0 mm
04:25 AM 10.5°F-11.9°C 6.9°F-13.9°C 85% 1.0 mph WSW1.6 kmh WSW -- 30.13 in1020.3 mb 0.00 in0.0 mm 0.00 in0.0 mm 0.00 in0.0 mm
04:30 AM 10.5°F-11.9°C 6.9°F-13.9°C 85% 4.0 mph WSW6.4 kmh WSW -- 30.13 in1020.3 mb 0.00 in0.0 mm 0.00 in0.0 mm 0.00 in0.0 mm
04:35 AM 10.5°F-11.9°C 6.9°F-13.9°C 85% 4.0 mph W6.4 kmh W -- 30.13 in1020.3 mb 0.00 in0.0 mm 0.00 in0.0 mm 0.00 in0.0 mm
04:40 AM 10.5°F-11.9°C 6.9°F-13.9°C 85% 2.0 mph WSW3.2 kmh WSW -- 30.13 in1020.3 mb 0.00 in0.0 mm 0.00 in0.0 mm 0.00 in0.0 mm
04:45 AM 10.5°F-11.9°C 6.9°F-13.9°C 85% 5.0 mph WSW8.0 kmh WSW -- 30.13 in1020.3 mb 0.00 in0.0 mm 0.00 in0.0 mm 0.00 in0.0 mm
04:50 AM 10.5°F-11.9°C 6.9°F-13.9°C 85% 2.0 mph WSW3.2 kmh WSW -- 30.12 in1020.0 mb 0.00 in0.0 mm 0.00 in0.0 mm 0.00 in0.0 mm
04:55 AM 10.5°F-11.9°C 6.9°F-13.9°C 85% 5.0 mph WSW8.0 kmh WSW -- 30.13 in1020.3 mb 0.00 in0.0 mm 0.00 in0.0 mm 0.00 in0.0 mm
05:00 AM 10.5°F-11.9°C 6.9°F-13.9°C 85% 1.0 mph WSW1.6 kmh WSW 6.0 mph9.7 kmh 30.13 in1020.3 mb 0.00 in0.0 mm 0.00 in0.0 mm 0.00 in0.0 mm
05:05 AM 10.4°F-12.0°C 6.8°F-14.0°C 85% 1.0 mph WSW1.6 kmh WSW 6.0 mph9.7 kmh 30.12 in1020.0 mb 0.00 in0.0 mm 0.00 in0.0 mm 0.00 in0.0 mm
05:10 AM 10.5°F-11.9°C 6.9°F-13.9°C 85% 2.0 mph WSW3.2 kmh WSW -- 30.13 in1020.3 mb 0.00 in0.0 mm 0.00 in0.0 mm 0.00 in0.0 mm
05:15 AM 10.4°F-12.0°C 7.1°F-13.8°C 86% 1.0 mph WSW1.6 kmh WSW -- 30.12 in1020.0 mb 0.00 in0.0 mm 0.00 in0.0 mm 0.00 in0.0 mm
05:20 AM 10.5°F-11.9°C 6.9°F-13.9°C 85% 2.0 mph WSW3.2 kmh WSW -- 30.12 in1020.0 mb 0.00 in0.0 mm 0.00 in0.0 mm 0.00 in0.0 mm
05:25 AM 10.5°F-11.9°C 7.2°F-13.8°C 86% 3.0 mph WSW4.8 kmh WSW -- 30.13 in1020.3 mb 0.00 in0.0 mm 0.00 in0.0 mm 0.00 in0.0 mm
05:30 AM 10.5°F-11.9°C 7.2°F-13.8°C 86% 3.0 mph WSW4.8 kmh WSW -- 30.12 in1020.0 mb 0.00 in0.0 mm 0.00 in0.0 mm 0.00 in0.0 mm
05:35 AM 10.7°F-11.8°C 7.4°F-13.7°C 86% 3.0 mph WSW4.8 kmh WSW -- 30.13 in1020.3 mb 0.00 in0.0 mm 0.00 in0.0 mm 0.00 in0.0 mm
05:40 AM 10.7°F-11.8°C 7.4°F-13.7°C 86% 3.0 mph WSW4.8 kmh WSW -- 30.13 in1020.3 mb 0.00 in0.0 mm 0.00 in0.0 mm 0.00 in0.0 mm
05:45 AM 10.8°F-11.8°C 7.5°F-13.6°C 86% 1.0 mph WSW1.6 kmh WSW -- 30.12 in1020.0 mb 0.00 in0.0 mm 0.00 in0.0 mm 0.00 in0.0 mm
05:50 AM 10.9°F-11.7°C 7.6°F-13.6°C 86% 3.0 mph WSW4.8 kmh WSW 5.0 mph8.0 kmh 30.13 in1020.3 mb 0.00 in0.0 mm 0.00 in0.0 mm 0.00 in0.0 mm
05:55 AM 11.1°F-11.6°C 7.7°F-13.5°C 86% 3.0 mph W4.8 kmh W 5.0 mph8.0 kmh 30.13 in1020.3 mb 0.00 in0.0 mm 0.00 in0.0 mm 0.00 in0.0 mm
06:00 AM 11.3°F-11.5°C 7.9°F-13.4°C 86% 4.0 mph W6.4 kmh W -- 30.13 in1020.3 mb 0.00 in0.0 mm 0.00 in0.0 mm 0.00 in0.0 mm
06:05 AM 11.4°F-11.4°C 8.0°F-13.3°C 86% 4.0 mph W6.4 kmh W -- 30.13 in1020.3 mb 0.00 in0.0 mm 0.00 in0.0 mm 0.00 in0.0 mm
06:10 AM 11.6°F-11.3°C 8.0°F-13.3°C 85% 5.0 mph W8.0 kmh W -- 30.13 in1020.3 mb 0.00 in0.0 mm 0.00 in0.0 mm 0.00 in0.0 mm
06:15 AM 11.6°F-11.3°C 8.0°F-13.3°C 85% 2.0 mph W3.2 kmh W -- 30.14 in1020.7 mb 0.00 in0.0 mm 0.00 in0.0 mm 0.00 in0.0 mm
06:20 AM 11.7°F-11.3°C 8.1°F-13.3°C 85% 4.0 mph NW6.4 kmh NW -- 30.14 in1020.7 mb 0.00 in0.0 mm 0.00 in0.0 mm 0.00 in0.0 mm
06:25 AM 11.8°F-11.2°C 8.2°F-13.2°C 85% 5.0 mph W8.0 kmh W -- 30.14 in1020.7 mb 0.00 in0.0 mm 0.00 in0.0 mm 0.00 in0.0 mm
06:30 AM 11.8°F-11.2°C 8.2°F-13.2°C 85% 4.0 mph WNW6.4 kmh WNW -- 30.14 in1020.7 mb 0.00 in0.0 mm 0.00 in0.0 mm 0.00 in0.0 mm
06:35 AM 11.9°F-11.2°C 8.3°F-13.2°C 85% 5.0 mph W8.0 kmh W -- 30.14 in1020.7 mb 0.00 in0.0 mm 0.00 in0.0 mm 0.00 in0.0 mm
06:40 AM 11.9°F-11.2°C 8.3°F-13.2°C 85% 2.0 mph W3.2 kmh W 9.0 mph14.5 kmh 30.14 in1020.7 mb 0.00 in0.0 mm 0.00 in0.0 mm 0.00 in0.0 mm
06:45 AM 12.0°F-11.1°C 8.4°F-13.1°C 85% 3.0 mph W4.8 kmh W 9.0 mph14.5 kmh 30.15 in1021.0 mb 0.00 in0.0 mm 0.00 in0.0 mm 0.00 in0.0 mm
06:50 AM 12.0°F-11.1°C 8.4°F-13.1°C 85% 5.0 mph W8.0 kmh W -- 30.14 in1020.7 mb 0.00 in0.0 mm 0.00 in0.0 mm 0.00 in0.0 mm
06:55 AM 12.0°F-11.1°C 8.4°F-13.1°C 85% 5.0 mph NW8.0 kmh NW -- 30.14 in1020.7 mb 0.00 in0.0 mm 0.00 in0.0 mm 0.00 in0.0 mm
07:00 AM 12.0°F-11.1°C 8.4°F-13.1°C 85% 6.0 mph W9.7 kmh W -- 30.15 in1021.0 mb 0.00 in0.0 mm 0.00 in0.0 mm 0.00 in0.0 mm
07:05 AM 12.0°F-11.1°C 8.4°F-13.1°C 85% 4.0 mph W6.4 kmh W -- 30.15 in1021.0 mb 0.00 in0.0 mm 0.00 in0.0 mm 0.00 in0.0 mm
07:10 AM 12.0°F-11.1°C 8.1°F-13.3°C 84% 5.0 mph NW8.0 kmh NW -- 30.15 in1021.0 mb 0.00 in0.0 mm 0.00 in0.0 mm 0.00 in0.0 mm
07:15 AM 12.1°F-11.1°C 8.2°F-13.2°C 84% 3.0 mph NW4.8 kmh NW -- 30.15 in1021.0 mb 0.00 in0.0 mm 0.00 in0.0 mm 0.00 in0.0 mm
07:20 AM 12.1°F-11.1°C 8.2°F-13.2°C 84% 9.0 mph WNW14.5 kmh WNW -- 30.15 in1021.0 mb 0.00 in0.0 mm 0.00 in0.0 mm 0.00 in0.0 mm
07:25 AM 12.1°F-11.1°C 8.2°F-13.2°C 84% 7.0 mph WNW11.3 kmh WNW -- 30.15 in1021.0 mb 0.00 in0.0 mm 0.00 in0.0 mm 0.00 in0.0 mm
07:30 AM 12.1°F-11.1°C 7.9°F-13.4°C 83% 7.0 mph WNW11.3 kmh WNW 11.0 mph17.7 kmh 30.15 in1021.0 mb 0.00 in0.0 mm 0.00 in0.0 mm 0.00 in0.0 mm
07:35 AM 12.1°F-11.1°C 7.9°F-13.4°C 83% 7.0 mph NW11.3 kmh NW 11.0 mph17.7 kmh 30.15 in1021.0 mb 0.00 in0.0 mm 0.00 in0.0 mm 0.00 in0.0 mm
07:40 AM 12.0°F-11.1°C 7.8°F-13.4°C 83% 6.0 mph NW9.7 kmh NW -- 30.15 in1021.0 mb 0.00 in0.0 mm 0.00 in0.0 mm 0.00 in0.0 mm
07:45 AM 11.9°F-11.2°C 7.5°F-13.6°C 82% 5.0 mph WNW8.0 kmh WNW -- 30.15 in1021.0 mb 0.00 in0.0 mm 0.00 in0.0 mm 0.00 in0.0 mm
07:50 AM 11.9°F-11.2°C 7.5°F-13.6°C 82% 4.0 mph WNW6.4 kmh WNW -- 30.15 in1021.0 mb 0.00 in0.0 mm 0.00 in0.0 mm 0.00 in0.0 mm
07:55 AM 11.9°F-11.2°C 7.5°F-13.6°C 82% 5.0 mph WNW8.0 kmh WNW -- 30.16 in1021.3 mb 0.00 in0.0 mm 0.00 in0.0 mm 0.00 in0.0 mm
08:00 AM 11.7°F-11.3°C 7.3°F-13.7°C 82% 6.0 mph NW9.7 kmh NW -- 30.16 in1021.3 mb 0.00 in0.0 mm 0.00 in0.0 mm 0.00 in0.0 mm
08:05 AM 11.6°F-11.3°C 7.2°F-13.8°C 82% 3.0 mph NW4.8 kmh NW -- 30.16 in1021.3 mb 0.00 in0.0 mm 0.00 in0.0 mm 0.00 in0.0 mm
08:10 AM 11.5°F-11.4°C 7.1°F-13.8°C 82% 5.0 mph W8.0 kmh W -- 30.16 in1021.3 mb 0.00 in0.0 mm 0.00 in0.0 mm 0.00 in0.0 mm
08:15 AM 11.4°F-11.4°C 7.0°F-13.9°C 82% 7.0 mph NW11.3 kmh NW -- 30.16 in1021.3 mb 0.00 in0.0 mm 0.00 in0.0 mm 0.00 in0.0 mm
08:20 AM 11.3°F-11.5°C 6.9°F-13.9°C 82% 9.0 mph NW14.5 kmh NW 11.0 mph17.7 kmh 30.16 in1021.3 mb 0.00 in0.0 mm 0.00 in0.0 mm 0.00 in0.0 mm
08:25 AM 11.2°F-11.6°C 6.5°F-14.2°C 81% 4.0 mph NW6.4 kmh NW 11.0 mph17.7 kmh 30.16 in1021.3 mb 0.00 in0.0 mm 0.00 in0.0 mm 0.00 in0.0 mm
08:30 AM 11.2°F-11.6°C 6.5°F-14.2°C 81% 8.0 mph WNW12.9 kmh WNW -- 30.16 in1021.3 mb 0.00 in0.0 mm 0.00 in0.0 mm 0.00 in0.0 mm
08:35 AM 11.1°F-11.6°C 6.2°F-14.3°C 80% 4.0 mph WNW6.4 kmh WNW -- 30.17 in1021.7 mb 0.00 in0.0 mm 0.00 in0.0 mm 0.00 in0.0 mm
08:40 AM 11.0°F-11.7°C 6.1°F-14.4°C 80% 9.0 mph NW14.5 kmh NW -- 30.17 in1021.7 mb 0.00 in0.0 mm 0.00 in0.0 mm 0.00 in0.0 mm
08:45 AM 10.9°F-11.7°C 5.7°F-14.6°C 79% 7.0 mph WNW11.3 kmh WNW -- 30.17 in1021.7 mb 0.00 in0.0 mm 0.00 in0.0 mm 0.00 in0.0 mm
08:50 AM 10.5°F-11.9°C 5.3°F-14.8°C 79% 6.0 mph NW9.7 kmh NW -- 30.18 in1022.0 mb 0.00 in0.0 mm 0.00 in0.0 mm 0.00 in0.0 mm
08:55 AM 10.5°F-11.9°C 5.0°F-15.0°C 78% 6.0 mph NW9.7 kmh NW -- 30.18 in1022.0 mb 0.00 in0.0 mm 0.00 in0.0 mm 0.00 in0.0 mm
09:00 AM 10.5°F-11.9°C 5.0°F-15.0°C 78% 5.0 mph NW8.0 kmh NW -- 30.18 in1022.0 mb 0.00 in0.0 mm 0.00 in0.0 mm 0.00 in0.0 mm
09:05 AM 10.5°F-11.9°C 4.7°F-15.2°C 77% 9.0 mph NW14.5 kmh NW -- 30.18 in1022.0 mb 0.00 in0.0 mm 0.00 in0.0 mm 0.00 in0.0 mm
09:10 AM 10.5°F-11.9°C 4.7°F-15.2°C 77% 12.0 mph NW19.3 kmh NW 16.0 mph25.7 kmh 30.18 in1022.0 mb 0.00 in0.0 mm 0.00 in0.0 mm 0.00 in0.0 mm
09:15 AM 10.5°F-11.9°C 4.5°F-15.3°C 76% 5.0 mph WNW8.0 kmh WNW 16.0 mph25.7 kmh 30.18 in1022.0 mb 0.00 in0.0 mm 0.00 in0.0 mm 0.00 in0.0 mm
09:20 AM 10.5°F-11.9°C 4.5°F-15.3°C 76% 12.0 mph W19.3 kmh W -- 30.19 in1022.4 mb 0.00 in0.0 mm 0.00 in0.0 mm 0.00 in0.0 mm
09:25 AM 10.4°F-12.0°C 4.4°F-15.3°C 76% 5.0 mph NW8.0 kmh NW -- 30.18 in1022.0 mb 0.00 in0.0 mm 0.00 in0.0 mm 0.00 in0.0 mm
09:30 AM 10.4°F-12.0°C 4.4°F-15.3°C 76% 5.0 mph NW8.0 kmh NW -- 30.19 in1022.4 mb 0.00 in0.0 mm 0.00 in0.0 mm 0.00 in0.0 mm
09:35 AM 10.3°F-12.1°C 4.3°F-15.4°C 76% 8.0 mph NW12.9 kmh NW -- 30.19 in1022.4 mb 0.00 in0.0 mm 0.00 in0.0 mm 0.00 in0.0 mm
09:40 AM 10.1°F-12.2°C 3.8°F-15.7°C 75% 4.0 mph NW6.4 kmh NW -- 30.19 in1022.4 mb 0.00 in0.0 mm 0.00 in0.0 mm 0.00 in0.0 mm
09:45 AM 10.0°F-12.2°C 3.4°F-15.9°C 74% 12.0 mph NW19.3 kmh NW -- 30.19 in1022.4 mb 0.00 in0.0 mm 0.00 in0.0 mm 0.00 in0.0 mm
09:50 AM 9.8°F-12.3°C 3.2°F-16.0°C 74% 11.0 mph NNW17.7 kmh NNW -- 30.19 in1022.4 mb 0.00 in0.0 mm 0.00 in0.0 mm 0.00 in0.0 mm
09:55 AM 9.6°F-12.4°C 3.0°F-16.1°C 74% 8.0 mph NW12.9 kmh NW -- 30.20 in1022.7 mb 0.00 in0.0 mm 0.00 in0.0 mm 0.00 in0.0 mm
10:00 AM 9.6°F-12.4°C 3.0°F-16.1°C 74% 13.0 mph NW20.9 kmh NW 20.0 mph32.2 kmh 30.20 in1022.7 mb 0.00 in0.0 mm 0.00 in0.0 mm 0.00 in0.0 mm
10:05 AM 9.5°F-12.5°C 2.9°F-16.2°C 74% 5.0 mph NW8.0 kmh NW 20.0 mph32.2 kmh 30.20 in1022.7 mb 0.00 in0.0 mm 0.00 in0.0 mm 0.00 in0.0 mm
10:10 AM 9.4°F-12.6°C 2.5°F-16.4°C 73% 8.0 mph NW12.9 kmh NW -- 30.20 in1022.7 mb 0.00 in0.0 mm 0.00 in0.0 mm 0.00 in0.0 mm
10:15 AM 9.2°F-12.7°C 2.6°F-16.3°C 74% 8.0 mph WNW12.9 kmh WNW -- 30.20 in1022.7 mb 0.00 in0.0 mm 0.00 in0.0 mm 0.00 in0.0 mm
10:20 AM 9.0°F-12.8°C 2.4°F-16.4°C 74% 9.0 mph NW14.5 kmh NW -- 30.20 in1022.7 mb 0.00 in0.0 mm 0.00 in0.0 mm 0.00 in0.0 mm
10:25 AM 8.8°F-12.9°C 2.2°F-16.6°C 74% 11.0 mph NW17.7 kmh NW -- 30.20 in1022.7 mb 0.00 in0.0 mm 0.00 in0.0 mm 0.00 in0.0 mm
10:30 AM 9.0°F-12.8°C 2.4°F-16.4°C 74% 9.0 mph WNW14.5 kmh WNW -- 30.20 in1022.7 mb 0.00 in0.0 mm 0.00 in0.0 mm 0.00 in0.0 mm
10:35 AM 9.3°F-12.6°C 2.7°F-16.3°C 74% 8.0 mph NW12.9 kmh NW -- 30.21 in1023.0 mb 0.00 in0.0 mm 0.00 in0.0 mm 0.00 in0.0 mm
10:40 AM 9.7°F-12.4°C 3.1°F-16.1°C 74% 10.0 mph WNW16.1 kmh WNW -- 30.21 in1023.0 mb 0.00 in0.0 mm 0.00 in0.0 mm 0.00 in0.0 mm
10:45 AM 9.9°F-12.3°C 3.0°F-16.1°C 73% 6.0 mph W9.7 kmh W -- 30.21 in1023.0 mb 0.00 in0.0 mm 0.00 in0.0 mm 0.00 in0.0 mm
10:50 AM 10.0°F-12.2°C 3.1°F-16.1°C 73% 6.0 mph WNW9.7 kmh WNW 15.0 mph24.1 kmh 30.21 in1023.0 mb 0.00 in0.0 mm 0.00 in0.0 mm 0.00 in0.0 mm
10:55 AM 9.9°F-12.3°C 3.0°F-16.1°C 73% 8.0 mph NW12.9 kmh NW 15.0 mph24.1 kmh 30.21 in1023.0 mb 0.00 in0.0 mm 0.00 in0.0 mm 0.00 in0.0 mm
11:00 AM 10.1°F-12.2°C 3.2°F-16.0°C 73% 11.0 mph WNW17.7 kmh WNW -- 30.22 in1023.4 mb 0.00 in0.0 mm 0.00 in0.0 mm 0.00 in0.0 mm
11:05 AM 10.3°F-12.1°C 3.1°F-16.1°C 72% 5.0 mph NNW8.0 kmh NNW -- 30.22 in1023.4 mb 0.00 in0.0 mm 0.00 in0.0 mm 0.00 in0.0 mm
11:10 AM 10.5°F-11.9°C 3.3°F-15.9°C 72% 4.0 mph NW6.4 kmh NW -- 30.22 in1023.4 mb 0.00 in0.0 mm 0.00 in0.0 mm 0.00 in0.0 mm
11:15 AM 10.5°F-11.9°C 3.3°F-15.9°C 72% 13.0 mph NW20.9 kmh NW -- 30.22 in1023.4 mb 0.00 in0.0 mm 0.00 in0.0 mm 0.00 in0.0 mm
11:20 AM 10.3°F-12.1°C 3.1°F-16.1°C 72% 12.0 mph WNW19.3 kmh WNW -- 30.23 in1023.7 mb 0.00 in0.0 mm 0.00 in0.0 mm 0.00 in0.0 mm
11:25 AM 10.4°F-12.0°C 3.2°F-16.0°C 72% 4.0 mph NW6.4 kmh NW -- 30.23 in1023.7 mb 0.00 in0.0 mm 0.00 in0.0 mm 0.00 in0.0 mm
11:30 AM 10.4°F-12.0°C 3.5°F-15.8°C 73% 6.0 mph NW9.7 kmh NW -- 30.23 in1023.7 mb 0.00 in0.0 mm 0.00 in0.0 mm 0.00 in0.0 mm
11:35 AM 10.3°F-12.1°C 3.1°F-16.1°C 72% 7.0 mph NNW11.3 kmh NNW -- 30.23 in1023.7 mb 0.00 in0.0 mm 0.00 in0.0 mm 0.00 in0.0 mm
11:40 AM 10.4°F-12.0°C 3.5°F-15.8°C 73% 5.0 mph NW8.0 kmh NW 18.0 mph29.0 kmh 30.23 in1023.7 mb 0.00 in0.0 mm 0.00 in0.0 mm 0.00 in0.0 mm
11:45 AM 10.3°F-12.1°C 3.4°F-15.9°C 73% 4.0 mph NW6.4 kmh NW 18.0 mph29.0 kmh 30.23 in1023.7 mb 0.00 in0.0 mm 0.00 in0.0 mm 0.00 in0.0 mm
11:50 AM 10.3°F-12.1°C 3.7°F-15.7°C 74% 11.0 mph NW17.7 kmh NW -- 30.23 in1023.7 mb 0.00 in0.0 mm 0.00 in0.0 mm 0.00 in0.0 mm
11:55 AM 10.0°F-12.2°C 3.4°F-15.9°C 74% 11.0 mph W17.7 kmh W -- 30.23 in1023.7 mb 0.00 in0.0 mm 0.00 in0.0 mm 0.00 in0.0 mm
12:00 PM 9.7°F-12.4°C 3.1°F-16.1°C 74% 13.0 mph WNW20.9 kmh WNW -- 30.24 in1024.0 mb 0.00 in0.0 mm 0.00 in0.0 mm 0.00 in0.0 mm
12:05 PM 9.7°F-12.4°C 3.1°F-16.1°C 74% 11.0 mph WNW17.7 kmh WNW -- 30.23 in1023.7 mb 0.00 in0.0 mm 0.00 in0.0 mm 0.00 in0.0 mm
12:10 PM 9.6°F-12.4°C 3.0°F-16.1°C 74% 8.0 mph NW12.9 kmh NW -- 30.23 in1023.7 mb 0.00 in0.0 mm 0.00 in0.0 mm 0.00 in0.0 mm
12:15 PM 9.6°F-12.4°C 3.0°F-16.1°C 74% 10.0 mph W16.1 kmh W -- 30.23 in1023.7 mb 0.00 in0.0 mm 0.00 in0.0 mm 0.00 in0.0 mm
12:20 PM 9.7°F-12.4°C 3.1°F-16.1°C 74% 10.0 mph NW16.1 kmh NW -- 30.23 in1023.7 mb 0.00 in0.0 mm 0.00 in0.0 mm 0.00 in0.0 mm
12:25 PM 10.0°F-12.2°C 3.4°F-15.9°C 74% 11.0 mph NNW17.7 kmh NNW -- 30.23 in1023.7 mb 0.00 in0.0 mm 0.00 in0.0 mm 0.00 in0.0 mm
12:30 PM 9.9°F-12.3°C 3.0°F-16.1°C 73% 7.0 mph NW11.3 kmh NW 14.0 mph22.5 kmh 30.23 in1023.7 mb 0.00 in0.0 mm 0.00 in0.0 mm 0.00 in0.0 mm
12:35 PM 10.0°F-12.2°C 3.4°F-15.9°C 74% 11.0 mph NW17.7 kmh NW 14.0 mph22.5 kmh 30.23 in1023.7 mb 0.00 in0.0 mm 0.00 in0.0 mm 0.00 in0.0 mm
12:40 PM 9.9°F-12.3°C 3.0°F-16.1°C 73% 8.0 mph W12.9 kmh W -- 30.23 in1023.7 mb 0.00 in0.0 mm 0.00 in0.0 mm 0.00 in0.0 mm
12:45 PM 9.9°F-12.3°C 3.0°F-16.1°C 73% 10.0 mph WNW16.1 kmh WNW -- 30.23 in1023.7 mb 0.00 in0.0 mm 0.00 in0.0 mm 0.00 in0.0 mm
12:50 PM 9.8°F-12.3°C 2.9°F-16.2°C 73% 6.0 mph WNW9.7 kmh WNW -- 30.23 in1023.7 mb 0.00 in0.0 mm 0.00 in0.0 mm 0.00 in0.0 mm
12:55 PM 9.8°F-12.3°C 2.9°F-16.2°C 73% 7.0 mph WNW11.3 kmh WNW -- 30.23 in1023.7 mb 0.00 in0.0 mm 0.00 in0.0 mm 0.00 in0.0 mm
01:00 PM 9.8°F-12.3°C 2.9°F-16.2°C 73% 9.0 mph WNW14.5 kmh WNW -- 30.23 in1023.7 mb 0.00 in0.0 mm 0.00 in0.0 mm 0.00 in0.0 mm
01:05 PM 9.9°F-12.3°C 3.0°F-16.1°C 73% 14.0 mph WNW22.5 kmh WNW -- 30.23 in1023.7 mb 0.00 in0.0 mm 0.00 in0.0 mm 0.00 in0.0 mm
01:10 PM 9.7°F-12.4°C 2.5°F-16.4°C 72% 10.0 mph NW16.1 kmh NW -- 30.23 in1023.7 mb 0.00 in0.0 mm 0.00 in0.0 mm 0.00 in0.0 mm
01:15 PM 8.8°F-12.9°C 1.9°F-16.7°C 73% 9.0 mph NNW14.5 kmh NNW -- 30.23 in1023.7 mb 0.00 in0.0 mm 0.00 in0.0 mm 0.00 in0.0 mm
01:20 PM 8.8°F-12.9°C 1.6°F-16.9°C 72% 13.0 mph WNW20.9 kmh WNW 17.0 mph27.4 kmh 30.22 in1023.4 mb 0.00 in0.0 mm 0.00 in0.0 mm 0.00 in0.0 mm
01:25 PM 8.9°F-12.8°C 1.7°F-16.8°C 72% 10.0 mph WNW16.1 kmh WNW 17.0 mph27.4 kmh 30.22 in1023.4 mb 0.00 in0.0 mm 0.00 in0.0 mm 0.00 in0.0 mm
01:30 PM 8.9°F-12.8°C 1.4°F-17.0°C 71% 16.0 mph NW25.7 kmh NW -- 30.22 in1023.4 mb 0.00 in0.0 mm 0.00 in0.0 mm 0.00 in0.0 mm
01:35 PM 9.1°F-12.7°C 1.3°F-17.1°C 70% 14.0 mph NW22.5 kmh NW -- 30.22 in1023.4 mb 0.00 in0.0 mm 0.00 in0.0 mm 0.00 in0.0 mm
01:40 PM 9.3°F-12.6°C 1.5°F-16.9°C 70% 10.0 mph NW16.1 kmh NW -- 30.22 in1023.4 mb 0.00 in0.0 mm 0.00 in0.0 mm 0.00 in0.0 mm
01:45 PM 9.6°F-12.4°C 1.5°F-16.9°C 69% 8.0 mph W12.9 kmh W -- 30.22 in1023.4 mb 0.00 in0.0 mm 0.00 in0.0 mm 0.00 in0.0 mm
01:50 PM 9.7°F-12.4°C 1.3°F-17.1°C 68% 10.0 mph NW16.1 kmh NW -- 30.22 in1023.4 mb 0.00 in0.0 mm 0.00 in0.0 mm 0.00 in0.0 mm
01:55 PM 9.6°F-12.4°C 1.2°F-17.1°C 68% 16.0 mph NW25.7 kmh NW -- 30.22 in1023.4 mb 0.00 in0.0 mm 0.00 in0.0 mm 0.00 in0.0 mm
02:00 PM 9.6°F-12.4°C 1.2°F-17.1°C 68% 9.0 mph NW14.5 kmh NW -- 30.22 in1023.4 mb 0.00 in0.0 mm 0.00 in0.0 mm 0.00 in0.0 mm
02:05 PM 9.6°F-12.4°C 1.2°F-17.1°C 68% 11.0 mph NW17.7 kmh NW -- 30.21 in1023.0 mb 0.00 in0.0 mm 0.00 in0.0 mm 0.00 in0.0 mm
06:00 PM 8.9°F-12.8°C -0.1°F-17.8°C 66% 4.0 mph NW6.4 kmh NW -- 30.31 in1026.4 mb 0.00 in0.0 mm 0.00 in0.0 mm 0.00 in0.0 mm
06:05 PM 8.8°F-12.9°C -0.2°F-17.9°C 66% 4.0 mph NW6.4 kmh NW -- 30.31 in1026.4 mb 0.00 in0.0 mm 0.00 in0.0 mm 0.00 in0.0 mm
06:10 PM 8.8°F-12.9°C -0.2°F-17.9°C 66% 4.0 mph NW6.4 kmh NW -- 30.31 in1026.4 mb 0.00 in0.0 mm 0.00 in0.0 mm 0.00 in0.0 mm
06:15 PM 8.7°F-12.9°C 0.0°F-17.8°C 67% 5.0 mph WNW8.0 kmh WNW -- 30.31 in1026.4 mb 0.00 in0.0 mm 0.00 in0.0 mm 0.00 in0.0 mm
06:20 PM 8.7°F-12.9°C 0.0°F-17.8°C 67% 3.0 mph W4.8 kmh W 9.0 mph14.5 kmh 30.31 in1026.4 mb 0.00 in0.0 mm 0.00 in0.0 mm 0.00 in0.0 mm
06:25 PM 8.7°F-12.9°C 0.0°F-17.8°C 67% 6.0 mph W9.7 kmh W 9.0 mph14.5 kmh 30.31 in1026.4 mb 0.00 in0.0 mm 0.00 in0.0 mm 0.00 in0.0 mm
06:30 PM 8.7°F-12.9°C 0.0°F-17.8°C 67% 5.0 mph WNW8.0 kmh WNW -- 30.31 in1026.4 mb 0.00 in0.0 mm 0.00 in0.0 mm 0.00 in0.0 mm
06:35 PM 8.7°F-12.9°C 0.0°F-17.8°C 67% 5.0 mph NW8.0 kmh NW -- 30.31 in1026.4 mb 0.00 in0.0 mm 0.00 in0.0 mm 0.00 in0.0 mm
06:40 PM 8.6°F-13.0°C -0.1°F-17.8°C 67% 5.0 mph NW8.0 kmh NW -- 30.31 in1026.4 mb 0.00 in0.0 mm 0.00 in0.0 mm 0.00 in0.0 mm
06:45 PM 8.6°F-13.0°C -0.1°F-17.8°C 67% 5.0 mph W8.0 kmh W -- 30.32 in1026.8 mb 0.00 in0.0 mm 0.00 in0.0 mm 0.00 in0.0 mm
06:50 PM 8.6°F-13.0°C -0.1°F-17.8°C 67% 5.0 mph NW8.0 kmh NW -- 30.32 in1026.8 mb 0.00 in0.0 mm 0.00 in0.0 mm 0.00 in0.0 mm
06:55 PM 8.5°F-13.1°C -0.2°F-17.9°C 67% 8.0 mph NW12.9 kmh NW -- 30.32 in1026.8 mb 0.00 in0.0 mm 0.00 in0.0 mm 0.00 in0.0 mm
07:00 PM 8.3°F-13.2°C -0.4°F-18.0°C 67% 10.0 mph WNW16.1 kmh WNW -- 30.32 in1026.8 mb 0.00 in0.0 mm 0.00 in0.0 mm 0.00 in0.0 mm
07:05 PM 8.2°F-13.2°C -0.5°F-18.1°C 67% 5.0 mph NW8.0 kmh NW -- 30.32 in1026.8 mb 0.00 in0.0 mm 0.00 in0.0 mm 0.00 in0.0 mm
07:10 PM 8.1°F-13.3°C -0.6°F-18.1°C 67% 7.0 mph WNW11.3 kmh WNW 14.0 mph22.5 kmh 30.33 in1027.1 mb 0.00 in0.0 mm 0.00 in0.0 mm 0.00 in0.0 mm
07:15 PM 8.0°F-13.3°C -0.7°F-18.2°C 67% 8.0 mph NW12.9 kmh NW 14.0 mph22.5 kmh 30.33 in1027.1 mb 0.00 in0.0 mm 0.00 in0.0 mm 0.00 in0.0 mm
07:20 PM 7.9°F-13.4°C -0.7°F-18.2°C 67% 7.0 mph NW11.3 kmh NW -- 30.33 in1027.1 mb 0.00 in0.0 mm 0.00 in0.0 mm 0.00 in0.0 mm
07:25 PM 7.8°F-13.4°C -0.8°F-18.2°C 67% 6.0 mph NW9.7 kmh NW -- 30.33 in1027.1 mb 0.00 in0.0 mm 0.00 in0.0 mm 0.00 in0.0 mm
07:30 PM 7.8°F-13.4°C -0.8°F-18.2°C 67% 8.0 mph NW12.9 kmh NW -- 30.33 in1027.1 mb 0.00 in0.0 mm 0.00 in0.0 mm 0.00 in0.0 mm
07:35 PM 7.7°F-13.5°C -0.9°F-18.3°C 67% 6.0 mph NNW9.7 kmh NNW -- 30.34 in1027.4 mb 0.00 in0.0 mm 0.00 in0.0 mm 0.00 in0.0 mm
07:40 PM 7.6°F-13.6°C -1.0°F-18.3°C 67% 6.0 mph NNW9.7 kmh NNW -- 30.34 in1027.4 mb 0.00 in0.0 mm 0.00 in0.0 mm 0.00 in0.0 mm
07:45 PM 7.5°F-13.6°C -1.1°F-18.4°C 67% 9.0 mph WNW14.5 kmh WNW -- 30.34 in1027.4 mb 0.00 in0.0 mm 0.00 in0.0 mm 0.00 in0.0 mm
07:50 PM 7.4°F-13.7°C -1.2°F-18.4°C 67% 8.0 mph NW12.9 kmh NW -- 30.34 in1027.4 mb 0.00 in0.0 mm 0.00 in0.0 mm 0.00 in0.0 mm
07:55 PM 7.2°F-13.8°C -1.4°F-18.6°C 67% 11.0 mph WNW17.7 kmh WNW -- 30.34 in1027.4 mb 0.00 in0.0 mm 0.00 in0.0 mm 0.00 in0.0 mm
08:00 PM 7.1°F-13.8°C -1.5°F-18.6°C 67% 6.0 mph NW9.7 kmh NW 17.0 mph27.4 kmh 30.34 in1027.4 mb 0.00 in0.0 mm 0.00 in0.0 mm 0.00 in0.0 mm
08:05 PM 6.9°F-13.9°C -1.7°F-18.7°C 67% 7.0 mph NW11.3 kmh NW 17.0 mph27.4 kmh 30.35 in1027.8 mb 0.00 in0.0 mm 0.00 in0.0 mm 0.00 in0.0 mm
08:10 PM 6.7°F-14.1°C -1.9°F-18.8°C 67% 7.0 mph NW11.3 kmh NW -- 30.34 in1027.4 mb 0.00 in0.0 mm 0.00 in0.0 mm 0.00 in0.0 mm
08:15 PM 6.5°F-14.2°C -2.1°F-18.9°C 67% 8.0 mph NW12.9 kmh NW -- 30.35 in1027.8 mb 0.00 in0.0 mm 0.00 in0.0 mm 0.00 in0.0 mm
08:20 PM 6.4°F-14.2°C -2.2°F-19.0°C 67% 5.0 mph NW8.0 kmh NW -- 30.34 in1027.4 mb 0.00 in0.0 mm 0.00 in0.0 mm 0.00 in0.0 mm
08:25 PM 6.2°F-14.3°C -2.4°F-19.1°C 67% 4.0 mph NW6.4 kmh NW -- 30.35 in1027.8 mb 0.00 in0.0 mm 0.00 in0.0 mm 0.00 in0.0 mm
08:30 PM 5.9°F-14.5°C -2.7°F-19.3°C 67% 4.0 mph NW6.4 kmh NW -- 30.34 in1027.4 mb 0.00 in0.0 mm 0.00 in0.0 mm 0.00 in0.0 mm
08:35 PM 5.7°F-14.6°C -2.5°F-19.2°C 68% 6.0 mph NW9.7 kmh NW -- 30.35 in1027.8 mb 0.00 in0.0 mm 0.00 in0.0 mm 0.00 in0.0 mm
08:40 PM 5.6°F-14.7°C -2.6°F-19.2°C 68% 6.0 mph NW9.7 kmh NW -- 30.35 in1027.8 mb 0.00 in0.0 mm 0.00 in0.0 mm 0.00 in0.0 mm
08:45 PM 5.5°F-14.7°C -2.7°F-19.3°C 68% 10.0 mph WNW16.1 kmh WNW -- 30.35 in1027.8 mb 0.00 in0.0 mm 0.00 in0.0 mm 0.00 in0.0 mm
08:50 PM 5.4°F-14.8°C -2.8°F-19.3°C 68% 8.0 mph NW12.9 kmh NW 15.0 mph24.1 kmh 30.35 in1027.8 mb 0.00 in0.0 mm 0.00 in0.0 mm 0.00 in0.0 mm
08:55 PM 5.2°F-14.9°C -3.0°F-19.4°C 68% 8.0 mph NW12.9 kmh NW 15.0 mph24.1 kmh 30.35 in1027.8 mb 0.00 in0.0 mm 0.00 in0.0 mm 0.00 in0.0 mm
09:00 PM 5.0°F-15.0°C -3.2°F-19.6°C 68% 6.0 mph NW9.7 kmh NW -- 30.35 in1027.8 mb 0.00 in0.0 mm 0.00 in0.0 mm 0.00 in0.0 mm
09:05 PM 4.9°F-15.1°C -3.3°F-19.6°C 68% 4.0 mph NW6.4 kmh NW -- 30.35 in1027.8 mb 0.00 in0.0 mm 0.00 in0.0 mm 0.00 in0.0 mm
09:10 PM 4.7°F-15.2°C -3.5°F-19.7°C 68% 6.0 mph NW9.7 kmh NW -- 30.35 in1027.8 mb 0.00 in0.0 mm 0.00 in0.0 mm 0.00 in0.0 mm
09:15 PM 4.6°F-15.2°C -3.3°F-19.6°C 69% 7.0 mph NW11.3 kmh NW -- 30.35 in1027.8 mb 0.00 in0.0 mm 0.00 in0.0 mm 0.00 in0.0 mm
09:20 PM 4.5°F-15.3°C -3.4°F-19.7°C 69% 10.0 mph NW16.1 kmh NW -- 30.36 in1028.1 mb 0.00 in0.0 mm 0.00 in0.0 mm 0.00 in0.0 mm
09:25 PM 4.4°F-15.3°C -3.5°F-19.7°C 69% 4.0 mph WNW6.4 kmh WNW -- 30.36 in1028.1 mb 0.00 in0.0 mm 0.00 in0.0 mm 0.00 in0.0 mm
09:30 PM 4.3°F-15.4°C -3.6°F-19.8°C 69% 5.0 mph NW8.0 kmh NW -- 30.36 in1028.1 mb 0.00 in0.0 mm 0.00 in0.0 mm 0.00 in0.0 mm
09:35 PM 4.1°F-15.5°C -3.8°F-19.9°C 69% 5.0 mph NW8.0 kmh NW -- 30.36 in1028.1 mb 0.00 in0.0 mm 0.00 in0.0 mm 0.00 in0.0 mm
09:40 PM 3.9°F-15.6°C -4.0°F-20.0°C 69% 5.0 mph NW8.0 kmh NW 9.0 mph14.5 kmh 30.36 in1028.1 mb 0.00 in0.0 mm 0.00 in0.0 mm 0.00 in0.0 mm
09:45 PM 3.7°F-15.7°C -4.2°F-20.1°C 69% 4.0 mph NW6.4 kmh NW 9.0 mph14.5 kmh 30.37 in1028.4 mb 0.00 in0.0 mm 0.00 in0.0 mm 0.00 in0.0 mm
09:50 PM 3.4°F-15.9°C -4.4°F-20.2°C 69% 5.0 mph W8.0 kmh W -- 30.37 in1028.4 mb 0.00 in0.0 mm 0.00 in0.0 mm 0.00 in0.0 mm
09:55 PM 3.0°F-16.1°C -4.5°F-20.3°C 70% 3.0 mph WNW4.8 kmh WNW -- 30.37 in1028.4 mb 0.00 in0.0 mm 0.00 in0.0 mm 0.00 in0.0 mm
10:00 PM 2.8°F-16.2°C -4.7°F-20.4°C 70% 5.0 mph WNW8.0 kmh WNW -- 30.37 in1028.4 mb 0.00 in0.0 mm 0.00 in0.0 mm 0.00 in0.0 mm
10:05 PM 2.7°F-16.3°C -4.5°F-20.3°C 71% 7.0 mph NW11.3 kmh NW -- 30.37 in1028.4 mb 0.00 in0.0 mm 0.00 in0.0 mm 0.00 in0.0 mm
10:10 PM 2.7°F-16.3°C -4.5°F-20.3°C 71% 4.0 mph WNW6.4 kmh WNW -- 30.37 in1028.4 mb 0.00 in0.0 mm 0.00 in0.0 mm 0.00 in0.0 mm
10:15 PM 2.6°F-16.3°C -4.6°F-20.3°C 71% 7.0 mph NW11.3 kmh NW -- 30.37 in1028.4 mb 0.00 in0.0 mm 0.00 in0.0 mm 0.00 in0.0 mm
10:20 PM 2.5°F-16.4°C -4.7°F-20.4°C 71% 3.0 mph WNW4.8 kmh WNW -- 30.38 in1028.8 mb 0.00 in0.0 mm 0.00 in0.0 mm 0.00 in0.0 mm
10:25 PM 2.4°F-16.4°C -4.5°F-20.3°C 72% 6.0 mph NW9.7 kmh NW -- 30.38 in1028.8 mb 0.00 in0.0 mm 0.00 in0.0 mm 0.00 in0.0 mm
10:30 PM 2.3°F-16.5°C -4.6°F-20.3°C 72% 4.0 mph NW6.4 kmh NW 10.0 mph16.1 kmh 30.38 in1028.8 mb 0.00 in0.0 mm 0.00 in0.0 mm 0.00 in0.0 mm
10:35 PM 2.2°F-16.6°C -4.7°F-20.4°C 72% 5.0 mph NW8.0 kmh NW 10.0 mph16.1 kmh 30.38 in1028.8 mb 0.00 in0.0 mm 0.00 in0.0 mm 0.00 in0.0 mm
10:40 PM 2.1°F-16.6°C -4.8°F-20.4°C 72% 5.0 mph NW8.0 kmh NW -- 30.38 in1028.8 mb 0.00 in0.0 mm 0.00 in0.0 mm 0.00 in0.0 mm
10:45 PM 2.0°F-16.7°C -4.9°F-20.5°C 72% 6.0 mph NW9.7 kmh NW -- 30.38 in1028.8 mb 0.00 in0.0 mm 0.00 in0.0 mm 0.00 in0.0 mm
10:50 PM 1.9°F-16.7°C -5.0°F-20.6°C 72% 10.0 mph NW16.1 kmh NW -- 30.37 in1028.4 mb 0.00 in0.0 mm 0.00 in0.0 mm 0.00 in0.0 mm
10:55 PM 1.7°F-16.8°C -5.2°F-20.7°C 72% 3.0 mph NW4.8 kmh NW -- 30.38 in1028.8 mb 0.00 in0.0 mm 0.00 in0.0 mm 0.00 in0.0 mm
11:00 PM 1.5°F-16.9°C -5.4°F-20.8°C 72% 4.0 mph NW6.4 kmh NW -- 30.38 in1028.8 mb 0.00 in0.0 mm 0.00 in0.0 mm 0.00 in0.0 mm
11:05 PM 1.4°F-17.0°C -5.2°F-20.7°C 73% 4.0 mph NW6.4 kmh NW -- 30.38 in1028.8 mb 0.00 in0.0 mm 0.00 in0.0 mm 0.00 in0.0 mm
11:10 PM 1.4°F-17.0°C -5.2°F-20.7°C 73% 7.0 mph WNW11.3 kmh WNW -- 30.38 in1028.8 mb 0.00 in0.0 mm 0.00 in0.0 mm 0.00 in0.0 mm
11:15 PM 1.3°F-17.1°C -5.3°F-20.7°C 73% 6.0 mph W9.7 kmh W -- 30.38 in1028.8 mb 0.00 in0.0 mm 0.00 in0.0 mm 0.00 in0.0 mm
11:20 PM 1.2°F-17.1°C -5.4°F-20.8°C 73% 6.0 mph WNW9.7 kmh WNW 8.0 mph12.9 kmh 30.38 in1028.8 mb 0.00 in0.0 mm 0.00 in0.0 mm 0.00 in0.0 mm
11:25 PM 1.1°F-17.2°C -5.5°F-20.8°C 73% 3.0 mph NW4.8 kmh NW 8.0 mph12.9 kmh 30.39 in1029.1 mb 0.00 in0.0 mm 0.00 in0.0 mm 0.00 in0.0 mm
11:30 PM -0.5°F-18.1°C -7.0°F-21.7°C 73% 7.0 mph WNW11.3 kmh WNW -- 30.39 in1029.1 mb 0.00 in0.0 mm 0.00 in0.0 mm 0.00 in0.0 mm
11:35 PM -0.7°F-18.2°C -6.7°F-21.5°C 75% 9.0 mph NW14.5 kmh NW -- 30.39 in1029.1 mb 0.00 in0.0 mm 0.00 in0.0 mm 0.00 in0.0 mm
11:40 PM -0.8°F-18.2°C -6.8°F-21.6°C 75% 6.0 mph NW9.7 kmh NW -- 30.39 in1029.1 mb 0.00 in0.0 mm 0.00 in0.0 mm 0.00 in0.0 mm
11:45 PM -0.9°F-18.3°C -6.9°F-21.6°C 75% 8.0 mph NW12.9 kmh NW -- 30.39 in1029.1 mb 0.00 in0.0 mm 0.00 in0.0 mm 0.00 in0.0 mm
11:50 PM -0.9°F-18.3°C -6.6°F-21.4°C 76% 9.0 mph NW14.5 kmh NW -- 30.39 in1029.1 mb 0.00 in0.0 mm 0.00 in0.0 mm 0.00 in0.0 mm
11:55 PM -1.0°F-18.3°C -6.7°F-21.5°C 76% 6.0 mph NW9.7 kmh NW -- 30.39 in1029.1 mb 0.00 in0.0 mm 0.00 in0.0 mm 0.00 in0.0 mm